Time;durP1;ratioP1;P1;durP2;ratioP2;P2;SDS_P1;SDS_P2;PMS_P1;PMS_P2;Temp;Humidity;BMP_temperature;BMP_pressure;BME280_temperature;BME280_humidity;BME280_pressure;Samples;Min_cycle;Max_cycle;Signal;HPM_P1;HPM_P2
2023/05/03 00:01:42;;;;;;;33.08;9.57;;;;;;;;;;5092305;28;20043;-52
2023/05/03 00:04:09;;;;;;;34.05;9.60;;;;;;;;;;5092085;28;20180;-50
2023/05/03 00:06:36;;;;;;;33.03;8.93;;;;;;;;;;5092408;28;20070;-48
2023/05/03 00:09:03;;;;;;;35.75;10.07;;;;;;;;;;5091208;28;20040;-47
2023/05/03 00:11:30;;;;;;;33.90;9.23;;;;;;;;;;5074511;28;20028;-48
2023/05/03 00:13:57;;;;;;;34.75;9.82;;;;;;;;;;5081927;28;20070;-48
2023/05/03 00:16:24;;;;;;;41.03;10.18;;;;;;;;;;5091996;28;20440;-48
2023/05/03 00:18:51;;;;;;;43.45;9.95;;;;;;;;;;5089723;28;20043;-51
2023/05/03 00:21:18;;;;;;;38.88;10.18;;;;;;;;;;5071484;28;20032;-48
2023/05/03 00:23:45;;;;;;;39.47;10.65;;;;;;;;;;5085017;28;20502;-49
2023/05/03 00:26:12;;;;;;;47.22;9.85;;;;;;;;;;5091768;28;20444;-50
2023/05/03 00:28:39;;;;;;;57.45;10.27;;;;;;;;;;5089107;28;20147;-49
2023/05/03 00:31:08;;;;;;;44.83;10.52;;;;;;;;;;5091749;28;20024;-51
2023/05/03 00:33:35;;;;;;;68.40;13.63;;;;;;;;;;5090411;28;20031;-48
2023/05/03 00:36:11;;;;;;;67.45;13.95;;;;;;;;;;5091249;28;20031;-49
2023/05/03 00:38:39;;;;;;;66.47;17.20;;;;;;;;;;5091455;28;20035;-48
2023/05/03 00:41:06;;;;;;;62.88;17.13;;;;;;;;;;5091718;28;20036;-49
2023/05/03 00:43:34;;;;;;;60.05;16.65;;;;;;;;;;5091499;28;20031;-48
2023/05/03 00:46:02;;;;;;;58.10;15.50;;;;;;;;;;5091833;28;20039;-49
2023/05/03 00:48:30;;;;;;;64.53;16.02;;;;;;;;;;5091541;28;20483;-49
2023/05/03 00:50:57;;;;;;;68.53;16.55;;;;;;;;;;5077835;28;20851;-50
2023/05/03 00:53:24;;;;;;;72.20;16.40;;;;;;;;;;5089982;28;20028;-49
2023/05/03 00:55:54;;;;;;;57.10;15.70;;;;;;;;;;5091267;28;20043;-48
2023/05/03 00:58:21;;;;;;;65.13;17.42;;;;;;;;;;5091333;28;20069;-49
2023/05/03 01:00:48;;;;;;;68.03;17.10;;;;;;;;;;5091572;28;20093;-48
2023/05/03 01:03:16;;;;;;;61.55;16.08;;;;;;;;;;5072925;28;20412;-48
2023/05/03 01:06:08;;;;;;;60.95;16.27;;;;;;;;;;5091332;28;20103;-50
2023/05/03 01:08:44;;;;;;;68.43;15.95;;;;;;;;;;5090736;28;20048;-50
2023/05/03 01:11:20;;;;;;;61.92;16.95;;;;;;;;;;5090509;28;20485;-49
2023/05/03 01:13:50;;;;;;;74.10;18.35;;;;;;;;;;5090484;28;20031;-48
2023/05/03 01:16:17;;;;;;;63.05;17.45;;;;;;;;;;5076859;28;20020;-48
2023/05/03 01:18:48;;;;;;;61.15;17.40;;;;;;;;;;5078557;28;20036;-48
2023/05/03 01:21:17;;;;;;;62.87;16.80;;;;;;;;;;5075686;28;20072;-50
2023/05/03 01:24:07;;;;;;;62.90;17.33;;;;;;;;;;5077355;28;20112;-51
2023/05/03 01:26:34;;;;;;;58.33;17.45;;;;;;;;;;5070171;28;20583;-50
2023/05/03 01:29:01;;;;;;;58.10;16.75;;;;;;;;;;5076855;28;20028;-48
2023/05/03 01:31:31;;;;;;;60.55;17.33;;;;;;;;;;5076018;28;20036;-48
2023/05/03 01:34:04;;;;;;;60.78;16.50;;;;;;;;;;5089576;28;20048;-50
2023/05/03 01:36:31;;;;;;;60.78;16.90;;;;;;;;;;5081137;28;20029;-48
2023/05/03 01:39:00;;;;;;;57.35;16.92;;;;;;;;;;5069953;28;20105;-48
2023/05/03 01:41:27;;;;;;;57.80;16.35;;;;;;;;;;5079938;28;20083;-49
2023/05/03 01:43:55;;;;;;;66.63;15.70;;;;;;;;;;5085484;28;20025;-50
2023/05/03 01:46:22;;;;;;;50.60;16.33;;;;;;;;;;5081091;28;20047;-47
2023/05/03 01:48:49;;;;;;;55.45;15.40;;;;;;;;;;5085460;28;20093;-47
2023/05/03 01:51:16;;;;;;;60.17;17.35;;;;;;;;;;5073450;28;20021;-47
2023/05/03 01:53:43;;;;;;;48.25;15.13;;;;;;;;;;5063115;28;20499;-48
2023/05/03 01:56:10;;;;;;;45.72;14.52;;;;;;;;;;5091152;28;20735;-54
2023/05/03 01:58:37;;;;;;;49.45;15.10;;;;;;;;;;5090906;28;20024;-47
2023/05/03 02:01:05;;;;;;;47.75;14.70;;;;;;;;;;5090426;28;20063;-49
2023/05/03 02:03:32;;;;;;;49.50;15.05;;;;;;;;;;5087280;28;20044;-46
2023/05/03 02:05:59;;;;;;;59.33;15.77;;;;;;;;;;5090329;28;20036;-47
2023/05/03 02:08:26;;;;;;;52.13;16.08;;;;;;;;;;5090183;28;20060;-47
2023/05/03 02:10:53;;;;;;;45.33;14.85;;;;;;;;;;5087622;28;20023;-49
2023/05/03 02:13:20;;;;;;;44.40;14.13;;;;;;;;;;5077351;28;20117;-46
2023/05/03 02:15:47;;;;;;;42.45;15.13;;;;;;;;;;5079366;28;20483;-48
2023/05/03 02:18:15;;;;;;;53.50;15.90;;;;;;;;;;5062857;28;20504;-49
2023/05/03 02:20:45;;;;;;;43.53;14.68;;;;;;;;;;5079030;28;20119;-48
2023/05/03 02:23:12;;;;;;;51.30;14.52;;;;;;;;;;5080112;28;20028;-47
2023/05/03 02:25:39;;;;;;;46.67;14.63;;;;;;;;;;5081703;28;20033;-49
2023/05/03 02:28:06;;;;;;;47.05;14.95;;;;;;;;;;5085857;28;20069;-49
2023/05/03 02:30:34;;;;;;;43.40;13.68;;;;;;;;;;5082297;28;20502;-47
2023/05/03 02:33:01;;;;;;;40.15;13.35;;;;;;;;;;5083011;28;20390;-47
2023/05/03 02:35:28;;;;;;;38.38;14.05;;;;;;;;;;5088603;28;20067;-47
2023/05/03 02:37:56;;;;;;;37.50;12.57;;;;;;;;;;5075825;28;20028;-47
2023/05/03 02:40:23;;;;;;;42.78;13.73;;;;;;;;;;5094219;28;20550;-47
2023/05/03 02:42:50;;;;;;;39.25;13.23;;;;;;;;;;5094284;28;20074;-47
2023/05/03 02:45:17;;;;;;;35.45;13.10;;;;;;;;;;5094421;28;20025;-47
2023/05/03 02:47:44;;;;;;;41.42;13.10;;;;;;;;;;5094426;28;20119;-48
2023/05/03 02:50:11;;;;;;;35.60;11.98;;;;;;;;;;5094313;28;20024;-47
2023/05/03 02:52:38;;;;;;;33.83;12.23;;;;;;;;;;5094213;28;20054;-47
2023/05/03 02:55:05;;;;;;;32.45;11.93;;;;;;;;;;5094202;28;20016;-49
2023/05/03 02:57:32;;;;;;;27.35;11.55;;;;;;;;;;5094245;28;20031;-47
2023/05/03 02:59:59;;;;;;;29.00;12.15;;;;;;;;;;5094198;28;20500;-47
2023/05/03 03:02:26;;;;;;;33.42;12.27;;;;;;;;;;5093749;28;20386;-47
2023/05/03 03:04:53;;;;;;;25.55;11.90;;;;;;;;;;5093761;28;20052;-47
2023/05/03 03:07:20;;;;;;;34.33;11.98;;;;;;;;;;5093913;28;20024;-47
2023/05/03 03:09:47;;;;;;;30.95;12.52;;;;;;;;;;5093810;28;20035;-47
2023/05/03 03:12:14;;;;;;;24.63;10.73;;;;;;;;;;5093810;28;20032;-47
2023/05/03 03:14:41;;;;;;;31.67;12.13;;;;;;;;;;5093784;28;20393;-49
2023/05/03 03:17:08;;;;;;;28.60;11.73;;;;;;;;;;5093787;28;20505;-51
2023/05/03 03:19:35;;;;;;;25.02;9.93;;;;;;;;;;5093628;28;20472;-48
2023/05/03 03:22:02;;;;;;;28.52;11.60;;;;;;;;;;5093677;28;20123;-47
2023/05/03 03:24:29;;;;;;;25.30;11.10;;;;;;;;;;5093619;28;20020;-47
2023/05/03 03:26:56;;;;;;;27.60;11.05;;;;;;;;;;5093660;28;20497;-47
2023/05/03 03:29:24;;;;;;;20.25;9.82;;;;;;;;;;5093498;28;20028;-47
2023/05/03 03:31:50;;;;;;;24.92;11.15;;;;;;;;;;5093497;28;20028;-47
2023/05/03 03:34:17;;;;;;;25.55;10.68;;;;;;;;;;5093258;28;20020;-48
2023/05/03 03:36:44;;;;;;;24.98;9.77;;;;;;;;;;5093377;28;20123;-47
2023/05/03 03:39:11;;;;;;;24.73;10.43;;;;;;;;;;5093394;28;20036;-48
2023/05/03 03:41:38;;;;;;;24.02;10.70;;;;;;;;;;5093188;28;20047;-47
2023/05/03 03:44:05;;;;;;;21.90;9.48;;;;;;;;;;5074874;28;20034;-47
2023/05/03 03:46:32;;;;;;;23.42;9.13;;;;;;;;;;5093242;28;20030;-47
2023/05/03 03:48:59;;;;;;;22.83;10.25;;;;;;;;;;5093260;28;20042;-47
2023/05/03 03:51:26;;;;;;;22.25;9.80;;;;;;;;;;5093181;28;20032;-47
2023/05/03 03:53:53;;;;;;;17.10;8.52;;;;;;;;;;5092884;28;20424;-47
2023/05/03 03:56:20;;;;;;;20.35;9.27;;;;;;;;;;5093045;28;20055;-47
2023/05/03 03:58:47;;;;;;;21.77;9.50;;;;;;;;;;5092948;28;20100;-47
2023/05/03 04:01:14;;;;;;;17.83;8.68;;;;;;;;;;5092888;28;20043;-47
2023/05/03 04:03:41;;;;;;;22.77;9.90;;;;;;;;;;5092530;28;20079;-47
2023/05/03 04:06:08;;;;;;;19.42;9.55;;;;;;;;;;5092813;28;20525;-47
2023/05/03 04:08:35;;;;;;;19.73;8.85;;;;;;;;;;5092813;28;20539;-47
2023/05/03 04:11:02;;;;;;;16.33;7.35;;;;;;;;;;5092808;28;20122;-47
2023/05/03 04:13:29;;;;;;;15.10;7.72;;;;;;;;;;5092651;28;20035;-47
2023/05/03 04:15:56;;;;;;;16.90;8.38;;;;;;;;;;5092694;28;20020;-48
2023/05/03 04:18:23;;;;;;;16.27;8.63;;;;;;;;;;5092594;28;20028;-46
2023/05/03 04:20:51;;;;;;;17.40;8.02;;;;;;;;;;5092416;28;20044;-47
2023/05/03 04:23:18;;;;;;;17.38;8.23;;;;;;;;;;5092413;28;20028;-48
2023/05/03 04:25:47;;;;;;;16.77;8.27;;;;;;;;;;5092458;28;20111;-47
2023/05/03 04:28:14;;;;;;;16.27;7.75;;;;;;;;;;5092378;28;20028;-47
2023/05/03 04:30:46;;;;;;;16.15;7.78;;;;;;;;;;5092485;28;20150;-47
2023/05/03 04:33:14;;;;;;;16.55;7.90;;;;;;;;;;5092229;28;20440;-48
2023/05/03 04:35:41;;;;;;;14.38;7.55;;;;;;;;;;5092257;28;20024;-47
2023/05/03 04:38:08;;;;;;;16.85;7.30;;;;;;;;;;5092206;28;20093;-48
2023/05/03 04:40:36;;;;;;;17.05;7.97;;;;;;;;;;5092172;28;20024;-47
2023/05/03 04:43:04;;;;;;;13.25;7.03;;;;;;;;;;5092103;28;20401;-48
2023/05/03 04:45:31;;;;;;;13.05;6.85;;;;;;;;;;5091617;28;20043;-48
2023/05/03 04:47:58;;;;;;;15.13;6.90;;;;;;;;;;5092178;28;20441;-47
2023/05/03 04:50:25;;;;;;;12.35;6.55;;;;;;;;;;5092097;28;20023;-47
2023/05/03 04:52:52;;;;;;;13.23;7.50;;;;;;;;;;5091986;28;20024;-48
2023/05/03 04:55:19;;;;;;;12.15;6.50;;;;;;;;;;5092079;28;20043;-48
2023/05/03 04:57:46;;;;;;;12.70;6.60;;;;;;;;;;5091990;28;20020;-48
2023/05/03 05:00:13;;;;;;;13.18;6.30;;;;;;;;;;5091996;28;20115;-47
2023/05/03 05:02:40;;;;;;;10.85;6.28;;;;;;;;;;5091790;28;20501;-48
2023/05/03 05:05:08;;;;;;;10.73;6.15;;;;;;;;;;5091680;28;20493;-48
2023/05/03 05:07:35;;;;;;;16.13;7.10;;;;;;;;;;5091723;28;20441;-47
2023/05/03 05:10:02;;;;;;;11.40;6.20;;;;;;;;;;5091902;28;20555;-49
2023/05/03 05:12:29;;;;;;;13.75;5.88;;;;;;;;;;5091724;28;20028;-49
2023/05/03 05:14:56;;;;;;;14.98;6.18;;;;;;;;;;5091817;28;20474;-49
2023/05/03 05:17:25;;;;;;;11.68;5.93;;;;;;;;;;5091744;28;20040;-48
2023/05/03 05:19:52;;;;;;;13.13;5.95;;;;;;;;;;5091719;28;20032;-47
2023/05/03 05:22:20;;;;;;;9.77;5.55;;;;;;;;;;5091616;28;20036;-48
2023/05/03 05:24:47;;;;;;;13.40;5.57;;;;;;;;;;5091581;28;20385;-48
2023/05/03 05:27:13;;;;;;;10.02;5.10;;;;;;;;;;5091721;28;20028;-48
2023/05/03 05:29:40;;;;;;;9.68;5.60;;;;;;;;;;5091640;28;20086;-47
2023/05/03 05:32:07;;;;;;;10.27;5.25;;;;;;;;;;5091508;28;20500;-47
2023/05/03 05:34:35;;;;;;;10.75;5.57;;;;;;;;;;5091648;28;20525;-49
2023/05/03 05:37:04;;;;;;;10.48;5.50;;;;;;;;;;5091562;28;20085;-47
2023/05/03 05:39:31;;;;;;;9.23;4.70;;;;;;;;;;5091479;28;20127;-47
2023/05/03 05:41:58;;;;;;;8.25;4.60;;;;;;;;;;5091725;28;20448;-48
2023/05/03 05:44:25;;;;;;;10.48;5.20;;;;;;;;;;5091455;28;20486;-48
2023/05/03 05:46:52;;;;;;;9.38;4.88;;;;;;;;;;5091472;28;20067;-47
2023/05/03 05:49:19;;;;;;;9.10;5.00;;;;;;;;;;5091476;28;20028;-47
2023/05/03 05:51:46;;;;;;;10.93;4.68;;;;;;;;;;5091383;28;20501;-47
2023/05/03 05:54:12;;;;;;;10.38;4.80;;;;;;;;;;5091326;28;20394;-47
2023/05/03 05:56:40;;;;;;;8.70;4.63;;;;;;;;;;5091359;28;20402;-47
2023/05/03 05:59:07;;;;;;;10.25;4.53;;;;;;;;;;5094200;28;20016;-47
2023/05/03 06:01:34;;;;;;;8.50;4.60;;;;;;;;;;5093915;28;20386;-47
2023/05/03 06:04:01;;;;;;;9.23;4.55;;;;;;;;;;5094791;28;20047;-48
2023/05/03 06:06:28;;;;;;;10.45;4.60;;;;;;;;;;5095076;28;20103;-47
2023/05/03 06:08:55;;;;;;;6.30;4.03;;;;;;;;;;5095059;28;20044;-52
2023/05/03 06:11:22;;;;;;;7.15;4.00;;;;;;;;;;5094978;28;20036;-48
2023/05/03 06:13:49;;;;;;;7.20;4.10;;;;;;;;;;5094909;28;20538;-47
2023/05/03 06:16:16;;;;;;;10.57;4.43;;;;;;;;;;5094990;28;20042;-49
2023/05/03 06:18:43;;;;;;;6.30;3.95;;;;;;;;;;5094938;28;20031;-48
2023/05/03 06:21:10;;;;;;;7.40;4.18;;;;;;;;;;5094821;28;20043;-48
2023/05/03 06:23:39;;;;;;;7.60;3.97;;;;;;;;;;5094812;28;20035;-48
2023/05/03 06:26:06;;;;;;;7.60;4.10;;;;;;;;;;5094669;28;20059;-49
2023/05/03 06:28:33;;;;;;;7.32;4.00;;;;;;;;;;5094821;28;20030;-48
2023/05/03 06:31:01;;;;;;;7.47;3.80;;;;;;;;;;5094543;28;20028;-47
2023/05/03 06:33:28;;;;;;;6.82;3.60;;;;;;;;;;5094556;28;20028;-47
2023/05/03 06:35:55;;;;;;;6.85;4.00;;;;;;;;;;5094618;28;20028;-48
2023/05/03 06:38:22;;;;;;;7.97;3.78;;;;;;;;;;5094436;28;20062;-48
2023/05/03 06:40:50;;;;;;;5.40;3.55;;;;;;;;;;5094577;28;20035;-48
2023/05/03 06:43:17;;;;;;;5.05;3.42;;;;;;;;;;5094297;28;21201;-48
2023/05/03 06:45:44;;;;;;;6.85;3.80;;;;;;;;;;5094396;28;20542;-48
2023/05/03 06:48:11;;;;;;;7.38;3.60;;;;;;;;;;5094407;28;20103;-48
2023/05/03 06:50:38;;;;;;;6.13;3.42;;;;;;;;;;5094274;28;20024;-48
2023/05/03 06:53:05;;;;;;;6.72;3.55;;;;;;;;;;5094195;28;20469;-47
2023/05/03 06:55:32;;;;;;;7.95;3.90;;;;;;;;;;5094251;28;20036;-48
2023/05/03 06:58:00;;;;;;;6.93;3.35;;;;;;;;;;5094228;28;20481;-47
2023/05/03 07:00:27;;;;;;;7.38;3.30;;;;;;;;;;5093988;28;20074;-49
2023/05/03 07:02:55;;;;;;;5.97;3.45;;;;;;;;;;5094047;28;20055;-48
2023/05/03 07:05:22;;;;;;;5.57;3.25;;;;;;;;;;5076324;28;20090;-47
2023/05/03 07:10:17;;;;;;;6.38;3.33;;;;;;;;;;5212063;22;20059;-49
2023/05/03 07:12:44;;;;;;;6.47;3.03;;;;;;;;;;5073586;28;20044;-52
2023/05/03 07:15:11;;;;;;;5.63;2.95;;;;;;;;;;5072301;28;20020;-50
2023/05/03 07:17:38;;;;;;;4.32;2.67;;;;;;;;;;5072255;28;20473;-49
2023/05/03 07:20:06;;;;;;;4.75;3.00;;;;;;;;;;5073484;28;20024;-49
2023/05/03 07:22:33;;;;;;;6.95;3.15;;;;;;;;;;5073347;28;20472;-50
2023/05/03 07:25:00;;;;;;;6.50;2.85;;;;;;;;;;5073499;28;20023;-51
2023/05/03 07:27:27;;;;;;;5.43;2.92;;;;;;;;;;5073356;28;20115;-50
2023/05/03 07:29:54;;;;;;;5.93;2.83;;;;;;;;;;5073203;28;20027;-52
2023/05/03 07:32:21;;;;;;;5.30;2.80;;;;;;;;;;5073211;28;20398;-51
2023/05/03 07:34:48;;;;;;;5.20;2.65;;;;;;;;;;5073115;28;20020;-51
2023/05/03 07:37:15;;;;;;;3.47;2.45;;;;;;;;;;5073209;28;20098;-51
2023/05/03 07:39:42;;;;;;;4.57;2.67;;;;;;;;;;5073076;28;20489;-49
2023/05/03 07:42:09;;;;;;;4.30;2.85;;;;;;;;;;5073045;28;20534;-51
2023/05/03 07:44:36;;;;;;;5.30;2.55;;;;;;;;;;5073031;28;20024;-52
2023/05/03 07:47:06;;;;;;;5.75;2.78;;;;;;;;;;5072825;28;20074;-49
2023/05/03 07:49:35;;;;;;;4.28;2.50;;;;;;;;;;5072680;28;20040;-49
2023/05/03 07:52:02;;;;;;;5.15;2.80;;;;;;;;;;5072697;28;20041;-51
2023/05/03 07:54:29;;;;;;;5.75;3.05;;;;;;;;;;5072808;28;20070;-50
2023/05/03 07:56:56;;;;;;;4.25;2.40;;;;;;;;;;5072709;28;20017;-49
2023/05/03 07:59:23;;;;;;;3.63;2.40;;;;;;;;;;5072666;28;20047;-51
2023/05/03 08:01:50;;;;;;;6.03;2.58;;;;;;;;;;5072675;28;20035;-52
2023/05/03 08:04:17;;;;;;;3.47;2.47;;;;;;;;;;5072676;28;20085;-51
2023/05/03 08:06:44;;;;;;;4.55;2.40;;;;;;;;;;5072551;28;20032;-53
2023/05/03 08:09:11;;;;;;;3.17;2.15;;;;;;;;;;5072199;28;20457;-54
2023/05/03 08:11:38;;;;;;;3.45;1.92;;;;;;;;;;5072552;28;20467;-51
2023/05/03 08:14:05;;;;;;;3.38;2.20;;;;;;;;;;5072373;28;20091;-52
2023/05/03 08:16:32;;;;;;;2.72;2.17;;;;;;;;;;5072371;28;20027;-53
2023/05/03 08:18:59;;;;;;;3.67;2.20;;;;;;;;;;5072279;28;20067;-54
2023/05/03 08:21:27;;;;;;;3.55;2.15;;;;;;;;;;5071477;28;20028;-54
2023/05/03 08:23:54;;;;;;;4.15;2.28;;;;;;;;;;5072143;28;20081;-51
2023/05/03 08:26:23;;;;;;;3.95;2.13;;;;;;;;;;5072293;28;20032;-53
2023/05/03 08:28:50;;;;;;;3.72;1.98;;;;;;;;;;5072158;28;20450;-51
2023/05/03 08:31:17;;;;;;;4.03;2.25;;;;;;;;;;5061148;28;20509;-52
2023/05/03 08:33:44;;;;;;;7.35;2.30;;;;;;;;;;5052119;28;20032;-55
2023/05/03 08:36:11;;;;;;;3.00;2.00;;;;;;;;;;5052046;28;20155;-55
2023/05/03 08:38:40;;;;;;;3.67;1.90;;;;;;;;;;5051979;28;20037;-54
2023/05/03 08:41:17;;;;;;;3.22;1.65;;;;;;;;;;5052230;28;20040;-52
2023/05/03 08:43:47;;;;;;;3.60;1.80;;;;;;;;;;5052026;28;20112;-54
2023/05/03 08:46:15;;;;;;;2.70;1.67;;;;;;;;;;5050582;28;20521;-51
2023/05/03 08:48:43;;;;;;;3.47;2.00;;;;;;;;;;5051856;28;20085;-50
2023/05/03 08:51:11;;;;;;;3.35;1.75;;;;;;;;;;5051788;28;20498;-51
2023/05/03 08:53:37;;;;;;;3.75;1.70;;;;;;;;;;5051745;28;20482;-51
2023/05/03 08:56:08;;;;;;;3.45;2.00;;;;;;;;;;5051771;28;20497;-50
2023/05/03 08:58:38;;;;;;;2.38;1.65;;;;;;;;;;5051722;28;20048;-55
2023/05/03 09:01:06;;;;;;;3.28;1.80;;;;;;;;;;5051820;28;20490;-51
2023/05/03 09:03:36;;;;;;;3.33;1.90;;;;;;;;;;5051639;28;20024;-52
2023/05/03 09:06:03;;;;;;;2.25;1.48;;;;;;;;;;5051695;28;20036;-52
2023/05/03 09:08:31;;;;;;;2.70;1.73;;;;;;;;;;5051396;28;20059;-53
2023/05/03 09:10:58;;;;;;;3.88;1.80;;;;;;;;;;5051401;28;20653;-51
2023/05/03 09:13:31;;;;;;;2.58;1.80;;;;;;;;;;5051604;28;20027;-51
2023/05/03 09:15:58;;;;;;;2.65;1.77;;;;;;;;;;5051345;28;20035;-52
2023/05/03 09:18:25;;;;;;;1.83;1.33;;;;;;;;;;5051446;28;20021;-53
2023/05/03 09:20:52;;;;;;;4.78;1.80;;;;;;;;;;5051550;28;20040;-53
2023/05/03 09:23:25;;;;;;;5.45;1.85;;;;;;;;;;5051504;28;20086;-51
2023/05/03 09:25:52;;;;;;;2.55;1.50;;;;;;;;;;5033433;28;20056;-53
2023/05/03 09:28:20;;;;;;;3.95;1.40;;;;;;;;;;5051283;28;20375;-53
2023/05/03 09:30:47;;;;;;;3.63;1.70;;;;;;;;;;5051371;28;20104;-53
2023/05/03 09:33:20;;;;;;;3.13;1.40;;;;;;;;;;5042830;28;20499;-51
2023/05/03 09:35:58;;;;;;;2.33;1.48;;;;;;;;;;5037812;28;20033;-53
2023/05/03 09:38:26;;;;;;;4.53;1.50;;;;;;;;;;5034824;28;20033;-51
2023/05/03 09:40:53;;;;;;;4.35;1.60;;;;;;;;;;5035427;28;20079;-53
2023/05/03 09:43:20;;;;;;;6.65;1.73;;;;;;;;;;5035297;28;20136;-51
2023/05/03 09:45:47;;;;;;;11.75;1.63;;;;;;;;;;5034685;28;20040;-51
2023/05/03 09:48:14;;;;;;;10.07;1.90;;;;;;;;;;5035038;28;20061;-51
2023/05/03 09:50:42;;;;;;;12.52;2.03;;;;;;;;;;5017070;28;20429;-51
2023/05/03 09:53:09;;;;;;;14.65;1.98;;;;;;;;;;5034115;28;20021;-56
2023/05/03 09:55:38;;;;;;;13.82;2.10;;;;;;;;;;5033586;28;20048;-51
2023/05/03 09:58:06;;;;;;;12.07;2.25;;;;;;;;;;5033490;28;20029;-54
2023/05/03 10:00:39;;;;;;;12.43;2.13;;;;;;;;;;5033422;28;20056;-53
2023/05/03 10:03:11;;;;;;;8.75;1.90;;;;;;;;;;5033683;28;20032;-55
2023/05/03 10:05:40;;;;;;;8.13;1.77;;;;;;;;;;5031265;28;20075;-51
2023/05/03 10:08:09;;;;;;;15.63;2.08;;;;;;;;;;5028431;28;20099;-51
2023/05/03 10:10:36;;;;;;;14.13;2.58;;;;;;;;;;5059073;28;20510;-51
2023/05/03 10:13:03;;;;;;;11.73;2.45;;;;;;;;;;5061092;28;20719;-52
2023/05/03 10:15:31;;;;;;;9.43;1.92;;;;;;;;;;5059326;28;20040;-55
2023/05/03 10:18:02;;;;;;;8.57;1.90;;;;;;;;;;5054479;28;20030;-51
2023/05/03 10:20:35;;;;;;;11.23;1.98;;;;;;;;;;5053624;28;20090;-51
2023/05/03 10:23:05;;;;;;;7.72;1.58;;;;;;;;;;5053019;28;20526;-52
2023/05/03 10:25:33;;;;;;;8.15;1.80;;;;;;;;;;5054298;28;20033;-54
2023/05/03 10:28:03;;;;;;;8.05;1.60;;;;;;;;;;5053925;28;20037;-50
2023/05/03 10:30:33;;;;;;;8.38;1.60;;;;;;;;;;5052940;28;20021;-52
2023/05/03 10:33:12;;;;;;;12.50;2.10;;;;;;;;;;5052002;28;20547;-50
2023/05/03 10:35:40;;;;;;;10.07;2.20;;;;;;;;;;5058970;28;20027;-51
2023/05/03 10:38:17;;;;;;;7.03;1.77;;;;;;;;;;5060656;28;20533;-54
2023/05/03 10:40:45;;;;;;;7.72;1.63;;;;;;;;;;5064672;28;20036;-53
2023/05/03 10:43:33;;;;;;;9.15;1.50;;;;;;;;;;5051403;28;20083;-55
2023/05/03 10:46:04;;;;;;;5.95;1.80;;;;;;;;;;5070122;28;20044;-51
2023/05/03 10:48:31;;;;;;;10.80;1.83;;;;;;;;;;5073572;28;20024;-50
2023/05/03 10:51:18;;;;;;;8.60;1.83;;;;;;;;;;5073238;28;20487;-50
2023/05/03 10:53:45;;;;;;;7.13;2.10;;;;;;;;;;5072542;28;20043;-54
2023/05/03 10:56:14;;;;;;;8.00;1.83;;;;;;;;;;5073217;28;20033;-49
2023/05/03 10:58:45;;;;;;;10.10;2.03;;;;;;;;;;5073745;28;20165;-50
2023/05/03 11:01:19;;;;;;;9.75;2.28;;;;;;;;;;5073296;28;20031;-50
2023/05/03 11:03:46;;;;;;;8.75;2.03;;;;;;;;;;5072280;28;20482;-50
2023/05/03 11:06:33;;;;;;;5.18;1.88;;;;;;;;;;5071910;28;20072;-52
2023/05/03 11:09:00;;;;;;;4.00;1.55;;;;;;;;;;5051676;28;20545;-49
2023/05/03 11:11:27;;;;;;;9.77;3.97;;;;;;;;;;5049506;28;20139;-54
2023/05/03 11:13:55;;;;;;;8.77;2.47;;;;;;;;;;5050292;28;20032;-54
2023/05/03 11:16:22;;;;;;;11.88;2.53;;;;;;;;;;5052165;28;20406;-56
2023/05/03 11:18:50;;;;;;;12.50;2.55;;;;;;;;;;5052013;28;20033;-52
2023/05/03 11:21:17;;;;;;;14.73;3.10;;;;;;;;;;5051709;28;20374;-45
2023/05/03 11:23:45;;;;;;;20.33;2.70;;;;;;;;;;5050573;28;20037;-44
2023/05/03 11:26:12;;;;;;;94.63;6.82;;;;;;;;;;5051579;28;20086;-45
2023/05/03 11:28:42;;;;;;;150.55;12.55;;;;;;;;;;5051626;28;20029;-47
2023/05/03 11:31:10;;;;;;;82.05;8.48;;;;;;;;;;5051618;28;20458;-44
2023/05/03 11:33:38;;;;;;;65.72;6.97;;;;;;;;;;5047089;28;20029;-46
2023/05/03 11:36:06;;;;;;;66.68;7.47;;;;;;;;;;5051583;28;20067;-45
2023/05/03 11:38:33;;;;;;;61.13;8.05;;;;;;;;;;5050983;28;20025;-44
2023/05/03 11:41:01;;;;;;;69.45;8.38;;;;;;;;;;5051572;28;20127;-46
2023/05/03 11:43:29;;;;;;;42.28;6.32;;;;;;;;;;5049878;28;20037;-45
2023/05/03 11:45:57;;;;;;;46.00;5.05;;;;;;;;;;5051065;28;20114;-47
2023/05/03 11:48:26;;;;;;;42.70;5.82;;;;;;;;;;5051010;28;20086;-45
2023/05/03 11:50:56;;;;;;;28.58;4.70;;;;;;;;;;5051969;28;20036;-46
2023/05/03 11:53:24;;;;;;;36.42;5.53;;;;;;;;;;5051217;28;20471;-48
2023/05/03 11:55:52;;;;;;;44.55;5.93;;;;;;;;;;5050267;28;20657;-43
2023/05/03 11:58:26;;;;;;;31.88;5.22;;;;;;;;;;5051210;28;20032;-44
2023/05/03 12:00:54;;;;;;;36.60;5.47;;;;;;;;;;5051709;28;20029;-45
2023/05/03 12:03:22;;;;;;;44.17;6.55;;;;;;;;;;5051556;28;20032;-43
2023/05/03 12:05:51;;;;;;;56.88;7.85;;;;;;;;;;5050308;28;20044;-44
2023/05/03 12:08:20;;;;;;;66.90;7.75;;;;;;;;;;5051332;28;20112;-43
2023/05/03 12:10:47;;;;;;;64.00;8.25;;;;;;;;;;5051453;28;20045;-45
2023/05/03 12:13:15;;;;;;;48.22;8.07;;;;;;;;;;5052265;28;20029;-46
2023/05/03 12:15:44;;;;;;;58.97;7.82;;;;;;;;;;5049710;28;20064;-47
2023/05/03 12:18:12;;;;;;;55.25;7.25;;;;;;;;;;5050803;28;20040;-45
2023/05/03 12:20:40;;;;;;;45.72;7.05;;;;;;;;;;5051218;28;20387;-45
2023/05/03 12:23:08;;;;;;;40.45;6.75;;;;;;;;;;5051223;28;20035;-44
2023/05/03 12:25:36;;;;;;;48.00;6.70;;;;;;;;;;5049340;28;20432;-42
2023/05/03 12:28:04;;;;;;;43.10;7.35;;;;;;;;;;5048995;28;20375;-45
2023/05/03 12:30:31;;;;;;;46.67;6.50;;;;;;;;;;5050186;28;20047;-44
2023/05/03 12:32:58;;;;;;;40.90;6.60;;;;;;;;;;5050089;28;20692;-45
2023/05/03 12:35:25;;;;;;;36.47;6.05;;;;;;;;;;5050057;28;20033;-45
2023/05/03 12:37:52;;;;;;;46.05;6.88;;;;;;;;;;5048364;28;20087;-47
2023/05/03 12:40:23;;;;;;;40.67;6.80;;;;;;;;;;5050470;28;20021;-45
2023/05/03 12:42:50;;;;;;;44.60;5.47;;;;;;;;;;5050295;28;20037;-45
2023/05/03 12:45:17;;;;;;;36.85;3.78;;;;;;;;;;5049889;28;20040;-47
2023/05/03 12:47:44;;;;;;;27.05;4.70;;;;;;;;;;5049078;28;20112;-44
2023/05/03 12:50:11;;;;;;;45.92;6.30;;;;;;;;;;5051250;28;20171;-47
2023/05/03 12:52:38;;;;;;;38.53;5.95;;;;;;;;;;5051134;28;20045;-45
2023/05/03 12:55:05;;;;;;;43.33;5.97;;;;;;;;;;5049984;28;20436;-44
2023/05/03 12:57:33;;;;;;;36.15;5.65;;;;;;;;;;5049340;28;20048;-44
2023/05/03 13:00:01;;;;;;;44.85;5.75;;;;;;;;;;5051142;28;20036;-45
2023/05/03 13:02:28;;;;;;;41.30;6.30;;;;;;;;;;5051472;28;20037;-43
2023/05/03 13:04:55;;;;;;;33.15;5.78;;;;;;;;;;5051600;28;20039;-44
2023/05/03 13:07:24;;;;;;;48.78;6.47;;;;;;;;;;5051075;28;20041;-43
2023/05/03 13:09:52;;;;;;;48.38;6.78;;;;;;;;;;5051268;28;20060;-44
2023/05/03 13:12:19;;;;;;;52.63;7.30;;;;;;;;;;5051367;28;20044;-43
2023/05/03 13:14:47;;;;;;;62.30;7.22;;;;;;;;;;5051449;28;20096;-44
2023/05/03 13:17:14;;;;;;;67.53;8.60;;;;;;;;;;5051259;28;20106;-44
2023/05/03 13:19:43;;;;;;;72.60;8.73;;;;;;;;;;5051203;28;20032;-45
2023/05/03 13:22:10;;;;;;;67.93;8.50;;;;;;;;;;5051211;28;20041;-44
2023/05/03 13:24:37;;;;;;;54.95;7.97;;;;;;;;;;5051324;28;20387;-44
2023/05/03 13:27:05;;;;;;;58.85;7.95;;;;;;;;;;5051342;28;20037;-44
2023/05/03 13:29:32;;;;;;;64.32;8.10;;;;;;;;;;5051133;28;20112;-44
2023/05/03 13:31:59;;;;;;;56.65;7.95;;;;;;;;;;5050583;28;20047;-44
2023/05/03 13:34:26;;;;;;;53.72;6.78;;;;;;;;;;5049934;28;20028;-44
2023/05/03 13:36:52;;;;;;;55.17;8.13;;;;;;;;;;5051126;28;20028;-43
2023/05/03 13:39:19;;;;;;;43.85;5.82;;;;;;;;;;5050053;28;20040;-45
2023/05/03 13:41:46;;;;;;;37.63;5.80;;;;;;;;;;5049804;28;20513;-46
2023/05/03 13:44:13;;;;;;;44.13;5.78;;;;;;;;;;5049844;28;20479;-45
2023/05/03 13:46:42;;;;;;;35.63;4.93;;;;;;;;;;5047297;28;20033;-45
2023/05/03 13:49:09;;;;;;;39.85;5.10;;;;;;;;;;5049795;28;20033;-45
2023/05/03 13:51:36;;;;;;;33.08;4.55;;;;;;;;;;5050886;28;20399;-45
2023/05/03 13:54:05;;;;;;;39.78;5.10;;;;;;;;;;5050971;28;20048;-45
2023/05/03 13:56:32;;;;;;;46.35;3.22;;;;;;;;;;5050985;28;20028;-45
2023/05/03 13:58:59;;;;;;;31.10;3.20;;;;;;;;;;5050749;28;20498;-45
2023/05/03 14:01:26;;;;;;;36.92;3.00;;;;;;;;;;5050930;28;20116;-45
2023/05/03 14:03:54;;;;;;;37.33;3.47;;;;;;;;;;5050910;28;20037;-46
2023/05/03 14:06:26;;;;;;;32.78;2.90;;;;;;;;;;5050865;28;20029;-45
2023/05/03 14:08:53;;;;;;;39.38;2.95;;;;;;;;;;5050475;28;20049;-46
2023/05/03 14:11:23;;;;;;;29.33;2.78;;;;;;;;;;5050623;28;20100;-46
2023/05/03 14:13:51;;;;;;;25.77;2.60;;;;;;;;;;5050678;28;20399;-46
2023/05/03 14:16:19;;;;;;;19.27;3.25;;;;;;;;;;5050801;28;20025;-46
2023/05/03 14:18:46;;;;;;;13.18;2.83;;;;;;;;;;5051097;28;20067;-45
2023/05/03 14:21:14;;;;;;;15.38;2.75;;;;;;;;;;5054429;28;20102;-46
2023/05/03 14:23:41;;;;;;;17.17;2.58;;;;;;;;;;5054360;28;20498;-45
2023/05/03 14:26:08;;;;;;;22.08;2.88;;;;;;;;;;5054389;28;20104;-45
2023/05/03 14:28:35;;;;;;;22.88;2.85;;;;;;;;;;5054243;28;20028;-45
2023/05/03 14:31:03;;;;;;;18.77;2.47;;;;;;;;;;5051505;28;20025;-45
2023/05/03 14:33:30;;;;;;;21.58;2.42;;;;;;;;;;5033672;28;20025;-44
2023/05/03 14:35:57;;;;;;;26.80;2.30;;;;;;;;;;5033585;28;20524;-44
2023/05/03 14:38:24;;;;;;;21.80;2.08;;;;;;;;;;5034079;28;20022;-44